Macon, GA

7:37 AM EDT on July 03, 2015 (GMT -0400)
Mercer University | | Change Station
CLOSE
Current Station
Personal Weather Station
Location: Macon, GA
Elevation: 430 ft
Nearby Weather Stations

Elev 430 ft 32.83 °N, 83.65 °W | Updated 12 seconds ago

Partly Cloudy
Partly Cloudy
75.5 °F
Feels Like 75 °F
N
7.0
Wind Variable Wind from SW
Gusts 16.0 mph

Today
High -- | Low -- °F
--% Chance of Precip.
Yesterday
High -- | Low -- °F
Precip. -- in
6:30 AM 8:46 PM
Full, 97% visible
Pressure 30.02 in
Visibility 8.0 miles
Clouds Few 1200 ft
Scattered Clouds 2200 ft
Heat Index 75 °F
Dew Point 73 °F
Humidity 92%
Rainfall 0.00 in
Snow Depth Not available.
UV 0.0 out of 12
Pollen 3.20 out of 12
Air Quality Not available.
Flu Activity Not available.
SPECI KMCN 031111Z AUTO 23007KT 8SM FEW012 SCT022 24/22 A3002 RMK AO2 TSNO $

More Conditions Fewer Conditions

Pressure 30.02 in
Visibility 8.0 miles
Clouds Few 1200 ft
Scattered Clouds 2200 ft
Heat Index 75 °F
Dew Point 73 °F
Humidity 92%
Rainfall 0.00 in
Snow Depth Not available.
UV 0.0 out of 12
Pollen 3.20 out of 12
Air Quality Not available.
Flu Activity Not available.
SPECI KMCN 031111Z AUTO 23007KT 8SM FEW012 SCT022 24/22 A3002 RMK AO2 TSNO $

More Conditions Fewer Conditions

10-Day Weather Forecast

×

Almanac

Astronomy

Jul. 03, 2015 Rise Set
Actual Time
Civil Twilight
Nautical Twilight
Astronomical Twilight
Moon
Length of Visible Light
Length of Day
Tomorrow will be .
, % of the Moon is Illuminated

Today's Extremes

State Highs State Lows

Community

WunderPhotos

Upload Photos

1,834,656 photos uploaded!

WunderBlogs® & News

Nearby

Air Quality

  Air Quality AQ Index Pollutant
Not available.

Snow Depth

Station Depth Elevation

Earthquake Activity

City Distance Mag. Time & Date
Minimum magnitude displayed is 2.5.

Coastal Water Temperatures

Place Temperature

Stations

Nearby Weather Stations

Station Location Temp. Windchill Dew Point Humidity Wind Precip. Elev Updated Type